Flora, Illinois
Current Conditions -  °F | °C
As of 3:35 PM on Monday 24 Nov 2014 (Local Time) from KFOA Reporting Station
Clear Clear  
Wind Chill: 34°   Ceiling: Unl
Heat Index: 41°   Visibility: 10mi
Dew Point: 30°   Wind: 12mph
Humidity: 66%   Direction: 260°W
Pressure: 29.81"   Gusts: 24mph
Location:  38.67°N, 88.49°W
Report Text: KFOA 242135Z AUTO 26010G21KT 10SM CLR 05/M01 A2981 RMK AO2 T00501009
Loading
Personal Weather Stations






























Interactive Weather Map New forecast layout! Learn more

10-Day Weather Forecast

Advertisements
Track Severe Weather on mobile